Time;durP1;ratioP1;P1;durP2;ratioP2;P2;SDS_P1;SDS_P2;PMS_P1;PMS_P2;Temp;Humidity;BMP_temperature;BMP_pressure;BME280_temperature;BME280_humidity;BME280_pressure;Samples;Min_cycle;Max_cycle;Signal;HPM_P1;HPM_P2
2022/06/07 00:01:38;;;;;;;;;1.00;1.00;;;;;19.76;51.95;101069.53;5114489;27;45124;-68
2022/06/07 00:04:04;;;;;;;;;4.67;3.00;;;;;19.77;52.05;101073.16;5114527;27;45110;-66
2022/06/07 00:06:30;;;;;;;;;1.00;1.00;;;;;19.78;52.05;101069.50;5114310;27;45410;-67
2022/06/07 00:08:56;;;;;;;;;2.67;2.00;;;;;19.59;52.34;101053.34;5115792;27;44996;-68
2022/06/07 00:11:22;;;;;;;;;1.00;1.00;;;;;19.66;52.59;101056.91;5116646;27;45484;-68
2022/06/07 00:13:47;;;;;;;;;0.00;0.00;;;;;19.50;52.62;101034.41;5116054;27;44901;-68
2022/06/07 00:16:15;;;;;;;;;1.00;1.00;;;;;19.68;52.93;101061.41;5115865;27;45167;-67
2022/06/07 00:18:40;;;;;;;;;1.00;1.00;;;;;19.69;52.84;101060.50;5115605;27;45291;-67
2022/06/07 00:21:06;;;;;;;;;0.00;0.00;;;;;19.59;53.03;101045.19;5115402;27;45195;-67
2022/06/07 00:23:32;;;;;;;;;1.00;1.00;;;;;19.76;53.32;101057.78;5115525;27;44978;-66
2022/06/07 00:25:58;;;;;;;;;0.00;0.00;;;;;19.61;53.75;101040.66;5122383;27;45613;-67
2022/06/07 00:28:25;;;;;;;;;0.00;0.00;;;;;19.72;53.76;101051.44;5113609;27;45189;-67
2022/06/07 00:30:52;;;;;;;;;0.00;0.00;;;;;19.55;54.40;101024.47;5115575;27;45277;-68
2022/06/07 00:33:20;;;;;;;;;0.00;0.00;;;;;19.63;54.50;101046.06;5125582;27;45106;-67
2022/06/07 00:35:46;;;;;;;;;2.00;1.00;;;;;19.64;54.71;101059.63;5132900;27;47507;-67
2022/06/07 00:38:13;;;;;;;;;0.00;0.00;;;;;19.00;54.70;100951.63;5135306;27;45031;-67
2022/06/07 00:40:41;;;;;;;;;0.67;0.67;;;;;19.54;55.05;101041.63;5134910;27;45145;-66
2022/06/07 00:43:07;;;;;;;;;0.00;0.00;;;;;19.37;55.71;101016.41;5135596;27;45105;-66
2022/06/07 00:45:32;;;;;;;;;0.00;0.00;;;;;19.52;55.35;101040.75;5134843;27;45007;-66
2022/06/07 00:47:57;;;;;;;;;0.00;0.00;;;;;19.48;55.30;101031.69;5119764;27;45043;-66
2022/06/07 00:50:34;;;;;;;;;1.33;0.67;;;;;19.48;55.44;101036.22;5115349;27;44929;-67
2022/06/07 00:53:00;;;;;;;;;1.00;1.00;;;;;19.43;55.76;101022.69;5115899;27;45053;-67
2022/06/07 00:55:26;;;;;;;;;0.67;0.00;;;;;19.48;55.69;101015.44;5115328;27;45842;-67
2022/06/07 00:57:52;;;;;;;;;0.00;0.00;;;;;19.30;55.62;100988.47;5115266;27;45372;-67
2022/06/07 01:00:22;;;;;;;;;1.33;0.00;;;;;19.45;55.99;101017.28;5115166;27;45172;-68
2022/06/07 01:02:48;;;;;;;;;1.00;1.00;;;;;19.44;56.14;101010.06;5126163;27;45401;-66
2022/06/07 01:05:13;;;;;;;;;0.67;0.67;;;;;19.41;56.31;101012.78;5134000;27;45910;-67
2022/06/07 01:13:07;;;;;;;;;0.33;0.33;;;;;19.24;57.07;101002.94;5118545;27;45179;-67
2022/06/07 01:15:32;;;;;;;;;1.33;1.00;;;;;19.26;56.95;101021.91;5115015;27;45169;-66
2022/06/07 01:17:57;;;;;;;;;2.00;2.00;;;;;19.24;57.35;101008.38;5114435;27;45001;-67
2022/06/07 01:20:23;;;;;;;;;4.00;2.00;;;;;19.22;57.43;101018.31;5112859;27;45018;-65
2022/06/07 01:22:48;;;;;;;;;6.67;2.00;;;;;19.24;57.28;101005.66;5114606;27;45043;-66
2022/06/07 01:25:13;;;;;;;;;1.00;1.00;;;;;19.23;57.23;101001.16;5114263;27;45072;-67
2022/06/07 01:27:39;;;;;;;;;1.00;1.00;;;;;19.25;57.33;101002.03;5114246;27;44941;-66
2022/06/07 01:30:05;;;;;;;;;2.00;1.33;;;;;19.27;57.46;100999.31;5114485;27;44884;-68
2022/06/07 01:32:31;;;;;;;;;1.00;1.00;;;;;19.27;57.50;101007.44;5113426;27;45258;-66
2022/06/07 01:34:56;;;;;;;;;1.00;1.00;;;;;19.22;57.46;100990.31;5113325;27;51976;-67
2022/06/07 01:37:21;;;;;;;;;3.00;1.00;;;;;19.26;57.38;100997.53;5113869;27;44993;-66
2022/06/07 01:42:31;;;;;;;;;2.00;2.00;;;;;19.29;57.50;101011.06;5114358;27;45148;-67
2022/06/07 01:44:57;;;;;;;;;1.00;1.00;;;;;19.28;57.44;101003.84;5114063;27;45363;-66
2022/06/07 01:47:25;;;;;;;;;0.67;0.67;;;;;19.27;57.74;101007.44;5117664;27;45044;-67
2022/06/07 01:49:51;;;;;;;;;0.00;0.00;;;;;19.22;57.90;101007.50;5127831;27;44997;-67
2022/06/07 01:52:19;;;;;;;;;1.33;1.33;;;;;19.18;58.08;100996.66;5134463;27;45076;-68
2022/06/07 01:54:45;;;;;;;;;2.00;1.00;;;;;19.08;58.01;100985.88;5118059;27;45185;-67
2022/06/07 01:57:11;;;;;;;;;0.00;0.00;;;;;19.15;57.99;100993.06;5114699;27;45212;-67
2022/06/07 01:59:40;;;;;;;;;1.67;1.67;;;;;19.02;58.13;100964.22;5133346;27;45083;-67
2022/06/07 02:02:07;;;;;;;;;1.00;1.00;;;;;19.14;57.93;100991.25;5134217;27;45054;-67
2022/06/07 02:04:36;;;;;;;;;1.00;1.00;;;;;19.00;58.12;100967.88;5132815;27;45561;-67
2022/06/07 02:07:01;;;;;;;;;2.33;1.00;;;;;19.14;58.09;100984.97;5118940;27;45107;-67
2022/06/07 02:09:27;;;;;;;;;2.00;2.00;;;;;19.16;58.12;100980.44;5113784;27;45099;-67
2022/06/07 02:11:52;;;;;;;;;1.00;1.00;;;;;19.15;58.07;100987.66;5113826;27;45122;-67
2022/06/07 02:14:18;;;;;;;;;1.00;1.00;;;;;19.15;58.35;100981.31;5113215;27;45611;-67
2022/06/07 02:16:44;;;;;;;;;0.67;0.67;;;;;19.19;57.94;100976.78;5113008;27;45124;-68
2022/06/07 02:19:09;;;;;;;;;3.00;2.00;;;;;19.19;58.00;100974.06;5113903;27;45086;-67
2022/06/07 02:21:37;;;;;;;;;1.00;1.00;;;;;19.21;58.06;100972.28;5112537;27;45305;-66
2022/06/07 02:24:05;;;;;;;;;0.67;0.67;;;;;19.21;58.21;100973.16;5111803;27;45840;-67
2022/06/07 02:26:37;;;;;;;;;0.00;0.00;;;;;19.07;58.01;100943.47;5111483;27;44999;-65
2022/06/07 02:29:07;;;;;;;;;1.00;1.00;;;;;19.07;58.44;100939.84;5112061;27;45103;-67
2022/06/07 02:31:34;;;;;;;;;1.00;1.00;;;;;19.20;58.38;100960.53;5111332;27;44981;-65
2022/06/07 02:34:01;;;;;;;;;1.33;1.33;;;;;19.09;58.50;100944.34;5112412;27;45042;-65
2022/06/07 02:36:28;;;;;;;;;2.00;2.00;;;;;19.06;58.33;100943.47;5113332;27;45052;-67
2022/06/07 02:38:54;;;;;;;;;1.33;1.33;;;;;19.10;58.38;100953.38;5111759;27;44998;-67
2022/06/07 02:41:22;;;;;;;;;2.33;1.00;;;;;19.11;58.67;100960.59;5130926;27;44940;-67
2022/06/07 02:43:48;;;;;;;;;1.33;1.33;;;;;19.10;58.56;100948.84;5114669;27;45225;-67
2022/06/07 02:46:13;;;;;;;;;0.67;0.67;;;;;19.12;58.57;100955.16;5111668;27;44933;-67
2022/06/07 02:48:39;;;;;;;;;0.00;0.00;;;;;18.95;58.48;100914.63;5111989;27;45346;-67
2022/06/07 02:51:04;;;;;;;;;1.33;1.00;;;;;19.07;58.86;100938.06;5110987;27;44989;-67
2022/06/07 02:53:30;;;;;;;;;2.00;2.00;;;;;19.02;58.86;100928.13;5111125;27;45355;-66
2022/06/07 02:55:56;;;;;;;;;1.33;1.33;;;;;18.97;58.88;100909.19;5110819;27;45250;-66
2022/06/07 02:58:23;;;;;;;;;2.00;2.00;;;;;19.15;58.60;100936.19;5111089;27;45293;-67
2022/06/07 03:00:48;;;;;;;;;2.00;1.00;;;;;19.18;58.78;100939.78;5112707;27;46027;-67
2022/06/07 03:03:14;;;;;;;;;3.33;1.00;;;;;19.19;58.47;100934.38;5112137;27;45564;-67
2022/06/07 03:05:39;;;;;;;;;2.67;1.67;;;;;19.23;58.55;100929.81;5110600;27;44942;-67
2022/06/07 03:08:04;;;;;;;;;4.00;3.00;;;;;19.26;58.26;100933.41;5110351;27;45237;-66
2022/06/07 03:10:30;;;;;;;;;4.67;4.00;;;;;19.25;58.28;100931.59;5110717;27;45059;-67
2022/06/07 03:12:55;;;;;;;;;3.00;3.00;;;;;19.11;58.56;100904.63;5092026;27;46503;-67
2022/06/07 03:15:21;;;;;;;;;2.67;2.33;;;;;19.24;58.44;100918.09;5110795;27;45096;-67
2022/06/07 03:17:46;;;;;;;;;0.67;0.00;;;;;19.12;58.48;100891.97;5109904;27;45166;-68
2022/06/07 03:20:12;;;;;;;;;1.00;1.00;;;;;19.32;58.43;100927.97;5110869;27;45250;-67
2022/06/07 03:22:38;;;;;;;;;3.00;1.67;;;;;19.33;58.28;100937.84;5122371;27;45204;-67
2022/06/07 03:25:07;;;;;;;;;3.67;3.67;;;;;19.32;58.25;100922.53;5109580;27;45010;-66
2022/06/07 03:27:35;;;;;;;;;2.00;2.00;;;;;19.33;58.63;100924.31;5111478;27;44937;-67
2022/06/07 03:30:01;;;;;;;;;2.00;2.00;;;;;19.30;58.43;100921.66;5114129;27;45212;-66
2022/06/07 03:32:27;;;;;;;;;2.00;2.00;;;;;19.26;58.74;100916.25;5112845;27;46131;-68
2022/06/07 03:34:53;;;;;;;;;2.67;2.00;;;;;19.25;58.77;100923.47;5116663;27;45218;-66
2022/06/07 03:37:18;;;;;;;;;2.00;2.00;;;;;19.28;58.92;100918.03;5116718;27;45238;-68
2022/06/07 03:39:45;;;;;;;;;2.00;2.00;;;;;19.32;58.64;100918.94;5116438;27;45013;-67
2022/06/07 03:42:12;;;;;;;;;2.00;2.00;;;;;19.36;58.77;100923.41;5116499;27;45393;-67
2022/06/07 03:44:38;;;;;;;;;2.00;2.00;;;;;19.37;58.53;100930.63;5102227;27;45564;-67
2022/06/07 03:47:03;;;;;;;;;1.00;1.00;;;;;19.27;58.78;100924.38;5108939;27;45390;-67
2022/06/07 03:49:29;;;;;;;;;2.00;2.00;;;;;19.29;59.12;100932.50;5123253;27;45177;-68
2022/06/07 03:51:54;;;;;;;;;3.00;1.00;;;;;19.27;59.24;100945.13;5136000;27;45710;-66
2022/06/07 03:54:19;;;;;;;;;2.67;2.67;;;;;19.29;59.04;100930.69;5120173;27;47648;-67
2022/06/07 03:56:45;;;;;;;;;1.67;1.67;;;;;19.29;59.22;100936.09;5116162;27;44936;-67
2022/06/07 03:59:10;;;;;;;;;2.00;2.00;;;;;19.30;59.32;100935.19;5116204;27;44878;-67
2022/06/07 04:01:36;;;;;;;;;1.00;1.00;;;;;19.29;59.37;100937.91;5116434;27;45549;-66
2022/06/07 04:04:04;;;;;;;;;4.00;2.00;;;;;19.21;59.20;100910.88;5116037;27;45072;-67
2022/06/07 04:09:39;;;;;;;;;4.00;4.00;;;;;19.29;59.59;100930.69;5127896;27;45141;-66
2022/06/07 04:12:16;;;;;;;;;3.00;2.67;;;;;19.22;59.63;100934.34;5116980;27;45552;-67
2022/06/07 04:14:44;;;;;;;;;3.00;2.67;;;;;19.27;60.28;100935.22;5115343;27;44964;-66
2022/06/07 04:17:11;;;;;;;;;1.00;1.00;;;;;19.22;60.94;100936.13;5116724;27;45304;-68
2022/06/07 04:19:38;;;;;;;;;2.33;2.33;;;;;19.14;61.51;100936.22;5116005;27;44965;-67
2022/06/07 04:22:04;;;;;;;;;2.33;2.33;;;;;19.07;61.50;100921.81;5114624;27;44975;-67
2022/06/07 04:24:30;;;;;;;;;2.00;2.00;;;;;18.99;62.23;100918.25;5129848;27;45004;-67
2022/06/07 04:26:56;;;;;;;;;3.00;3.00;;;;;19.03;63.05;100938.97;5109404;27;45198;-67
2022/06/07 04:29:22;;;;;;;;;1.33;1.33;;;;;18.85;64.04;100914.69;5115550;27;45117;-67
2022/06/07 04:31:48;;;;;;;;;2.33;1.00;;;;;18.90;64.78;100919.16;5111007;27;45940;-67
2022/06/07 04:34:13;;;;;;;;;1.33;1.00;;;;;18.93;65.20;100929.09;5094865;27;45161;-67
2022/06/07 04:36:38;;;;;;;;;2.33;2.33;;;;;18.93;65.78;100932.69;5094722;27;45150;-66
2022/06/07 04:39:06;;;;;;;;;1.33;1.33;;;;;18.91;65.89;100934.50;5094305;27;45190;-67
2022/06/07 04:41:31;;;;;;;;;4.00;4.00;;;;;18.91;66.31;100937.22;5106150;27;45508;-67
2022/06/07 04:43:58;;;;;;;;;3.00;3.00;;;;;18.84;66.72;100930.06;5099083;27;45311;-66
2022/06/07 04:46:25;;;;;;;;;2.33;2.33;;;;;18.87;66.40;100935.41;5099636;27;45222;-68
2022/06/07 04:48:52;;;;;;;;;2.00;2.00;;;;;18.77;66.12;100917.41;5087860;27;45144;-67
2022/06/07 04:51:29;;;;;;;;;2.33;2.33;;;;;18.84;66.87;100937.25;5097344;27;45813;-67
2022/06/07 04:53:57;;;;;;;;;3.67;3.67;;;;;18.78;67.36;100930.94;5095389;27;45067;-67
2022/06/07 04:56:26;;;;;;;;;1.00;1.00;;;;;18.78;67.52;100933.63;5093709;27;45116;-67
2022/06/07 04:58:52;;;;;;;;;3.33;2.33;;;;;18.76;68.03;100942.69;5094433;27;45049;-67
2022/06/07 05:01:24;;;;;;;;;1.67;1.67;;;;;18.70;69.36;100935.47;5094202;27;45402;-67
2022/06/07 05:03:51;;;;;;;;;4.33;3.00;;;;;18.69;69.31;100927.34;5095145;27;45280;-67
2022/06/07 05:06:17;;;;;;;;;3.00;3.00;;;;;18.68;69.84;100942.72;5093851;27;45181;-66
2022/06/07 05:08:43;;;;;;;;;5.00;3.00;;;;;18.64;69.57;100935.50;5114365;27;45614;-67
2022/06/07 05:11:08;;;;;;;;;5.67;4.67;;;;;18.62;69.73;100936.41;5114333;27;45130;-67
2022/06/07 05:13:36;;;;;;;;;4.33;4.33;;;;;18.59;69.91;100940.03;5114267;27;45114;-66
2022/06/07 05:16:02;;;;;;;;;6.33;4.00;;;;;18.58;69.78;100932.81;5113446;27;45041;-68
2022/06/07 05:18:28;;;;;;;;;7.67;3.00;;;;;18.63;68.72;100939.13;5113410;27;45227;-67
2022/06/07 05:20:53;;;;;;;;;2.00;2.00;;;;;18.64;69.42;100938.19;5098811;27;46091;-67
2022/06/07 05:23:18;;;;;;;;;4.33;4.33;;;;;18.61;69.49;100924.72;5093203;27;45078;-66
2022/06/07 05:26:06;;;;;;;;;3.33;3.33;;;;;18.67;68.83;100926.47;5091413;27;45108;-67
2022/06/07 05:28:33;;;;;;;;;3.33;3.33;;;;;18.67;69.14;100927.38;5093853;27;45045;-68
2022/06/07 05:30:58;;;;;;;;;3.00;3.00;;;;;18.62;68.29;100926.47;5093446;27;45142;-68
2022/06/07 05:33:23;;;;;;;;;5.67;4.00;;;;;18.66;68.84;100932.78;5111546;27;45153;-66
2022/06/07 05:35:49;;;;;;;;;5.00;4.00;;;;;18.61;68.28;100927.41;5125683;27;45043;-68
2022/06/07 05:38:16;;;;;;;;;3.67;3.67;;;;;18.41;68.69;100897.69;5133608;27;45275;-69
2022/06/07 05:40:43;;;;;;;;;1.67;1.67;;;;;18.64;68.61;100943.59;5130567;27;45657;-69
2022/06/07 05:43:10;;;;;;;;;5.00;3.33;;;;;18.55;68.36;100917.50;5132203;27;45034;-68
2022/06/07 05:45:36;;;;;;;;;5.00;3.33;;;;;18.33;68.29;100883.28;5126579;27;45094;-70
2022/06/07 05:48:02;;;;;;;;;3.00;3.00;;;;;18.29;68.73;100882.41;5119539;27;45200;-68
2022/06/07 05:50:27;;;;;;;;;3.67;3.67;;;;;18.72;68.69;100941.78;5103976;27;46312;-69
2022/06/07 05:52:52;;;;;;;;;3.67;3.00;;;;;18.67;68.32;100938.19;5111700;27;49285;-69
2022/06/07 05:55:18;;;;;;;;;2.00;2.00;;;;;18.66;68.14;100938.19;5115968;27;45025;-67
2022/06/07 05:57:49;;;;;;;;;2.33;2.33;;;;;18.67;67.96;100940.88;5114199;27;45321;-71
2022/06/07 06:00:15;;;;;;;;;5.33;4.33;;;;;18.73;67.67;100945.41;5111685;27;45072;-68
2022/06/07 06:02:41;;;;;;;;;3.33;3.33;;;;;18.60;67.77;100920.19;5129379;27;45046;-71
2022/06/07 06:05:06;;;;;;;;;2.67;2.67;;;;;18.78;67.49;100943.56;5099549;27;45293;-68
2022/06/07 06:07:32;;;;;;;;;6.00;6.00;;;;;18.81;67.82;100948.97;5110113;27;45178;-69
2022/06/07 06:12:41;;;;;;;;;1.33;1.33;;;;;18.39;67.53;100894.09;5111240;27;45282;-69
2022/06/07 06:15:06;;;;;;;;;2.00;2.00;;;;;18.72;67.60;100952.59;5129583;27;45002;-69
2022/06/07 06:17:32;;;;;;;;;3.00;3.00;;;;;18.77;67.67;100952.59;5130368;27;45146;-66
2022/06/07 06:19:57;;;;;;;;;3.00;3.00;;;;;18.81;67.44;100956.16;5126938;27;51397;-67
2022/06/07 06:22:22;;;;;;;;;3.00;3.00;;;;;18.73;67.65;100945.41;5130453;27;45139;-69
2022/06/07 06:24:48;;;;;;;;;4.00;2.00;;;;;18.70;67.75;100930.06;5129523;27;45184;-69
2022/06/07 06:27:13;;;;;;;;;6.67;3.67;;;;;18.88;68.01;100958.91;5130480;27;45040;-69
2022/06/07 06:29:38;;;;;;;;;2.67;2.67;;;;;18.93;67.73;100967.00;5113544;27;45574;-69
2022/06/07 06:32:04;;;;;;;;;4.00;4.00;;;;;19.00;67.64;100957.03;5100707;27;45499;-69
2022/06/07 06:34:30;;;;;;;;;4.00;4.00;;;;;19.09;67.18;100962.38;5097674;27;45432;-67
2022/06/07 06:36:57;;;;;;;;;3.67;2.00;;;;;19.11;66.74;100971.44;5095776;27;45550;-69
2022/06/07 06:39:23;;;;;;;;;2.00;2.00;;;;;19.12;66.92;100974.13;5094639;27;45381;-68
2022/06/07 06:41:48;;;;;;;;;5.00;3.00;;;;;19.05;67.03;100950.69;5076573;27;45438;-69
2022/06/07 06:44:14;;;;;;;;;3.00;2.00;;;;;19.21;66.62;100959.63;5094517;27;45442;-68
2022/06/07 06:46:42;;;;;;;;;5.33;4.00;;;;;19.29;66.45;100971.31;5095212;27;45539;-68
2022/06/07 06:49:11;;;;;;;;;4.00;4.00;;;;;19.38;66.21;100972.16;5095004;27;46180;-70
2022/06/07 06:51:36;;;;;;;;;7.00;6.67;;;;;19.39;65.84;100958.63;5114701;27;45360;-70
2022/06/07 06:54:03;;;;;;;;;3.00;3.00;;;;;19.38;66.13;100950.50;5114352;27;45393;-69
2022/06/07 06:56:29;;;;;;;;;5.00;5.00;;;;;19.56;65.27;100979.28;5114766;27;45516;-70
2022/06/07 06:58:56;;;;;;;;;2.00;2.00;;;;;19.56;65.09;100974.75;5113715;27;45344;-69
2022/06/07 07:01:26;;;;;;;;;4.67;3.00;;;;;19.57;65.02;100981.06;5113922;27;45409;-72
2022/06/07 07:03:52;;;;;;;;;4.67;3.00;;;;;19.47;64.31;100964.00;5117797;27;45530;-69
2022/06/07 07:06:18;;;;;;;;;2.00;2.00;;;;;19.54;64.06;100975.69;5117818;27;45345;-68
2022/06/07 07:08:46;;;;;;;;;3.00;2.00;;;;;19.56;64.37;100979.28;5117395;27;45345;-68
2022/06/07 07:11:15;;;;;;;;;2.33;1.00;;;;;19.59;64.35;100984.69;5117595;27;45386;-69
2022/06/07 07:13:42;;;;;;;;;1.33;1.00;;;;;19.56;64.00;100971.16;5117576;27;45491;-68
2022/06/07 07:16:10;;;;;;;;;2.67;1.00;;;;;19.52;64.12;100959.44;5081163;27;45499;-68
2022/06/07 07:18:36;;;;;;;;;1.33;1.33;;;;;19.53;63.57;100974.75;5115898;27;45526;-69
2022/06/07 07:21:07;;;;;;;;;1.00;1.00;;;;;19.57;64.06;100990.13;5117285;27;45459;-68
2022/06/07 07:23:33;;;;;;;;;3.67;3.67;;;;;19.60;63.59;100983.75;5117415;27;45744;-67
2022/06/07 07:26:04;;;;;;;;;4.33;2.33;;;;;19.63;63.20;100989.16;5117567;27;45455;-68
2022/06/07 07:28:30;;;;;;;;;6.33;3.33;;;;;19.66;62.41;100991.84;5098516;27;47350;-68
2022/06/07 07:31:00;;;;;;;;;2.00;2.00;;;;;19.64;62.05;100997.28;5116990;27;45368;-69
2022/06/07 07:33:25;;;;;;;;;2.00;2.00;;;;;19.61;61.97;100988.28;5117098;27;45502;-67
2022/06/07 07:35:52;;;;;;;;;5.00;3.00;;;;;19.54;61.41;100973.88;5117206;27;45447;-69
2022/06/07 07:38:18;;;;;;;;;2.00;1.33;;;;;19.66;60.99;100986.44;5117053;27;45464;-69
2022/06/07 07:40:43;;;;;;;;;1.00;1.00;;;;;19.69;61.02;100992.72;5116974;27;45444;-66
2022/06/07 07:43:08;;;;;;;;;2.00;2.00;;;;;19.33;60.96;100910.78;5116834;27;45907;-68
2022/06/07 07:45:35;;;;;;;;;1.00;1.00;;;;;19.82;60.47;100993.56;5098790;27;45497;-67
2022/06/07 07:48:00;;;;;;;;;2.33;1.33;;;;;19.82;60.01;100981.84;5117239;27;46011;-67
2022/06/07 07:50:26;;;;;;;;;3.67;2.67;;;;;19.96;59.99;100996.16;5116635;27;45389;-68
2022/06/07 07:52:51;;;;;;;;;1.00;1.00;;;;;19.54;59.45;100906.13;5116961;27;45400;-68
2022/06/07 07:55:16;;;;;;;;;2.67;1.33;;;;;20.06;59.21;100988.84;5117415;27;45265;-69
2022/06/07 07:57:42;;;;;;;;;3.00;1.00;;;;;20.09;59.15;100993.34;5116660;27;45352;-68
2022/06/07 08:00:09;;;;;;;;;5.33;2.00;;;;;20.13;58.93;100998.75;5098571;27;45554;-68
2022/06/07 08:02:34;;;;;;;;;4.00;3.00;;;;;20.16;58.95;101000.50;5116677;27;45509;-69
2022/06/07 08:05:00;;;;;;;;;2.00;2.00;;;;;20.19;58.85;101000.47;5117210;27;45514;-68
2022/06/07 08:07:25;;;;;;;;;2.00;0.00;;;;;20.19;58.84;100992.34;5116648;27;45426;-67
2022/06/07 08:09:50;;;;;;;;;4.00;3.33;;;;;20.24;59.05;101002.25;5116812;27;45597;-69
2022/06/07 08:12:16;;;;;;;;;4.67;4.00;;;;;20.27;58.61;100984.13;5116733;27;45489;-68
2022/06/07 08:14:41;;;;;;;;;3.00;3.00;;;;;20.33;58.73;100997.66;5097681;27;45526;-68
2022/06/07 08:17:06;;;;;;;;;1.67;1.67;;;;;20.27;58.24;100986.84;5116652;27;46333;-67
2022/06/07 08:19:32;;;;;;;;;7.67;3.00;;;;;20.26;57.59;100983.25;5116377;27;45459;-68
2022/06/07 08:21:57;;;;;;;;;2.00;1.00;;;;;20.36;57.79;100990.38;5116566;27;45532;-68
2022/06/07 08:24:23;;;;;;;;;2.00;2.00;;;;;20.11;57.77;100939.97;5117464;27;45291;-68
2022/06/07 08:26:49;;;;;;;;;3.00;1.00;;;;;20.33;58.09;100979.56;5117321;27;46747;-70
2022/06/07 08:29:16;;;;;;;;;1.00;1.00;;;;;20.35;57.49;100991.28;5117337;27;45439;-68
2022/06/07 08:31:42;;;;;;;;;3.00;3.00;;;;;20.24;57.56;100985.06;5116522;27;45450;-67
2022/06/07 08:39:38;;;;;;;;;1.00;1.00;;;;;20.25;58.27;100981.44;5116014;27;45475;-68
2022/06/07 08:42:26;;;;;;;;;2.00;2.00;;;;;20.32;57.60;100983.16;5116342;27;45636;-66
2022/06/07 08:44:57;;;;;;;;;4.00;4.00;;;;;20.35;58.25;100966.84;5115817;27;45312;-67
2022/06/07 08:47:41;;;;;;;;;4.33;3.00;;;;;20.54;57.33;100989.28;5115474;27;47390;-68
2022/06/07 08:50:33;;;;;;;;;4.00;2.00;;;;;20.66;56.48;100987.38;5115914;27;45208;-68
2022/06/07 08:53:11;;;;;;;;;2.00;2.00;;;;;20.51;56.07;100953.09;5115338;27;45361;-69
2022/06/07 08:55:44;;;;;;;;;2.00;2.00;;;;;20.75;55.92;100981.84;5115945;27;45324;-69
2022/06/07 08:58:20;;;;;;;;;2.00;2.00;;;;;20.48;55.13;100923.31;5115422;27;46322;-68
2022/06/07 09:00:52;;;;;;;;;3.33;1.67;;;;;20.93;54.85;100980.72;5095840;27;46106;-67
2022/06/07 09:03:32;;;;;;;;;2.67;2.67;;;;;21.02;54.46;100974.25;5110093;27;45411;-68
2022/06/07 09:06:00;;;;;;;;;2.33;2.33;;;;;21.08;54.00;100974.19;5115731;27;45284;-69
2022/06/07 09:08:47;;;;;;;;;2.67;1.67;;;;;21.16;53.88;100977.69;5115690;27;47040;-69
2022/06/07 09:14:29;;;;;;;;;1.00;1.00;;;;;21.29;52.88;100978.44;5112615;27;45420;-68
2022/06/07 09:16:56;;;;;;;;;3.00;1.00;;;;;21.37;52.46;100970.16;5115830;27;45584;-69
2022/06/07 09:19:25;;;;;;;;;1.00;1.00;;;;;21.33;52.61;100969.28;5096814;27;46425;-70
2022/06/07 09:21:52;;;;;;;;;2.00;2.00;;;;;21.41;52.49;100980.06;5115404;27;45484;-70
2022/06/07 09:25:02;;;;;;;;;1.67;1.67;;;;;21.47;52.17;100969.09;5115703;27;45363;-68
2022/06/07 09:27:32;;;;;;;;;1.33;1.33;;;;;21.48;51.44;100958.25;5108510;27;45545;-69
2022/06/07 09:30:17;;;;;;;;;1.67;1.67;;;;;21.64;51.22;100968.88;5114957;27;45490;-70
2022/06/07 09:32:45;;;;;;;;;2.33;2.33;;;;;21.75;50.67;100960.56;5077366;27;45593;-68
2022/06/07 09:35:21;;;;;;;;;2.00;2.00;;;;;21.93;50.13;100976.56;5077508;27;45460;-68
2022/06/07 09:37:49;;;;;;;;;1.67;1.67;;;;;21.98;49.82;100969.22;5095388;27;45439;-66
2022/06/07 09:40:35;;;;;;;;;1.00;1.00;;;;;22.02;49.75;100948.28;5094943;27;45448;-68
2022/06/07 09:43:29;;;;;;;;;1.33;1.00;;;;;21.94;48.91;100904.88;5094517;27;45331;-67
2022/06/07 09:46:06;;;;;;;;;1.67;1.00;;;;;22.34;48.88;100968.59;5105619;27;45488;-68
2022/06/07 09:48:41;;;;;;;;;1.00;1.00;;;;;22.45;48.89;100969.28;5115221;27;45392;-69
2022/06/07 09:51:06;;;;;;;;;4.00;4.00;;;;;22.56;48.55;100967.25;5114799;27;46333;-69
2022/06/07 09:53:37;;;;;;;;;1.67;1.67;;;;;22.64;47.92;100959.84;5115326;27;45582;-67
2022/06/07 09:56:20;;;;;;;;;3.00;3.00;;;;;22.68;48.41;100959.78;5115126;27;45346;-69
2022/06/07 09:59:27;;;;;;;;;3.00;3.00;;;;;22.71;48.89;100959.72;5114954;27;45425;-70
2022/06/07 10:02:06;;;;;;;;;2.00;2.00;;;;;22.69;48.33;100967.03;5066098;27;45722;-68
2022/06/07 10:04:40;;;;;;;;;1.67;1.00;;;;;22.70;47.25;100960.63;5113339;27;45340;-68
2022/06/07 10:07:27;;;;;;;;;1.33;1.33;;;;;22.61;48.02;100961.72;5115562;27;45334;-68
2022/06/07 10:10:14;;;;;;;;;2.00;2.00;;;;;22.59;47.57;100956.31;5115949;27;45454;-69
2022/06/07 10:12:51;;;;;;;;;0.67;0.67;;;;;22.57;47.85;100952.72;5114858;27;46226;-70
2022/06/07 10:15:30;;;;;;;;;2.00;2.00;;;;;22.45;47.73;100948.44;5114534;27;45650;-68
2022/06/07 10:18:00;;;;;;;;;1.00;1.00;;;;;22.44;48.15;100954.78;5114067;27;45434;-70
2022/06/07 10:20:28;;;;;;;;;2.00;1.00;;;;;22.37;48.07;100957.66;5114313;27;45320;-68
2022/06/07 10:23:05;;;;;;;;;2.00;1.00;;;;;22.35;47.86;100952.22;5114258;27;46286;-67
2022/06/07 10:26:01;;;;;;;;;1.00;1.00;;;;;22.31;47.73;100955.94;5114190;27;45369;-67
2022/06/07 10:28:37;;;;;;;;;0.67;0.67;;;;;22.26;47.14;100964.16;5076451;27;45700;-68
2022/06/07 10:31:17;;;;;;;;;1.00;1.00;;;;;22.16;46.15;100957.09;5095472;27;45301;-70
2022/06/07 10:34:00;;;;;;;;;4.00;2.67;;;;;22.14;46.33;100949.88;5107744;27;46272;-68
2022/06/07 10:36:47;;;;;;;;;4.00;3.33;;;;;22.25;44.12;100947.84;5113341;27;45384;-68
2022/06/07 10:39:28;;;;;;;;;4.33;3.00;;;;;22.37;43.96;100946.75;5114035;27;45416;-69
2022/06/07 10:42:35;;;;;;;;;0.00;0.00;;;;;22.42;44.28;100933.94;5114649;27;45442;-68
2022/06/07 10:45:15;;;;;;;;;1.67;1.00;;;;;22.49;43.90;100948.34;5113190;27;46224;-71
2022/06/07 10:47:51;;;;;;;;;1.67;1.67;;;;;22.49;44.21;100932.00;5114558;27;45280;-68
2022/06/07 10:50:22;;;;;;;;;1.00;1.00;;;;;22.49;44.04;100932.91;5114408;27;45455;-68
2022/06/07 10:53:26;;;;;;;;;0.67;0.67;;;;;22.56;43.43;100933.69;5106031;27;45496;-69
2022/06/07 10:56:00;;;;;;;;;2.00;2.00;;;;;22.59;43.60;100933.63;5107067;27;46046;-69
2022/06/07 10:58:43;;;;;;;;;2.67;1.00;;;;;22.71;44.06;100943.38;5113790;27;45494;-68
2022/06/07 11:01:24;;;;;;;;;1.00;1.00;;;;;22.86;44.06;100925.81;5114058;27;45524;-69
2022/06/07 11:03:55;;;;;;;;;5.00;2.00;;;;;22.90;44.29;100941.13;5114293;27;45272;-70
2022/06/07 11:09:22;;;;;;;;;1.33;0.00;;;;;22.81;41.59;100950.41;5114150;27;45676;-69
2022/06/07 11:11:52;;;;;;;;;1.33;1.33;;;;;22.56;41.91;100903.75;5113910;27;45509;-68
2022/06/07 11:14:27;;;;;;;;;0.00;0.00;;;;;22.79;41.34;100931.38;5114233;27;45443;-71
2022/06/07 11:16:57;;;;;;;;;1.00;1.00;;;;;22.90;42.31;100933.88;5113643;27;47357;-69
2022/06/07 11:19:23;;;;;;;;;2.00;2.00;;;;;23.02;43.09;100931.81;5113304;27;45412;-69
2022/06/07 11:21:55;;;;;;;;;3.33;2.00;;;;;23.16;42.78;100936.06;5113648;27;45448;-68
2022/06/07 11:24:27;;;;;;;;;1.00;1.00;;;;;23.08;41.95;100945.31;5113746;27;45446;-69
2022/06/07 11:26:53;;;;;;;;;0.33;0.33;;;;;22.94;43.51;100937.44;5113044;27;46401;-68
2022/06/07 11:29:24;;;;;;;;;2.33;2.33;;;;;22.79;43.45;100925.03;5095373;27;45737;-68
2022/06/07 11:31:51;;;;;;;;;1.00;1.00;;;;;22.87;43.23;100942.13;5113475;27;45496;-68
2022/06/07 11:34:31;;;;;;;;;4.00;2.00;;;;;22.80;43.30;100937.72;5077419;27;45565;-68
2022/06/07 11:37:20;;;;;;;;;1.00;1.00;;;;;22.78;43.75;100945.03;5100221;27;46224;-68
2022/06/07 11:39:57;;;;;;;;;1.00;1.00;;;;;22.80;43.47;100937.72;5098129;27;45543;-67
2022/06/07 11:42:36;;;;;;;;;1.00;1.00;;;;;22.88;43.64;100933.00;5113498;27;45377;-69
2022/06/07 11:45:18;;;;;;;;;1.00;1.00;;;;;23.00;42.88;100930.03;5113800;27;45371;-67
2022/06/07 11:47:43;;;;;;;;;3.00;1.67;;;;;23.09;42.81;100926.22;5113349;27;46466;-69
2022/06/07 11:50:27;;;;;;;;;2.00;1.00;;;;;23.08;42.14;100919.00;5116716;27;45524;-68
2022/06/07 11:53:19;;;;;;;;;0.00;0.00;;;;;22.98;42.60;100918.25;5113201;27;45486;-69
2022/06/07 11:55:48;;;;;;;;;2.00;2.00;;;;;22.95;43.05;100917.41;5117727;27;45637;-69
2022/06/07 11:58:13;;;;;;;;;1.00;1.00;;;;;22.92;43.45;100922.97;5116575;27;45502;-67
2022/06/07 12:00:43;;;;;;;;;1.00;1.00;;;;;22.86;43.68;100923.09;5094917;27;45365;-69